Ayrshire, Iowa
Current Conditions -  °F | °C
As of 4:53 PM on Tuesday 27 Jan 2015 (Local Time) from KSPW Reporting Station
Clear Clear  
Wind Chill: 34°   Ceiling: Unl
Heat Index: 41°   Visibility: 10mi
Dew Point: 34°   Wind: 13mph
Humidity: 76%   Direction: 130°SE
Pressure: 30.07"   Gusts: NA
Location:  43.04°N, 94.83°W
Report Text: KSPW 272253Z AUTO 13011KT 10SM CLR 05/01 A3007 RMK AO2 SLP194 T00500011 TSNO
Loading
Personal Weather Stations






























Interactive Weather Map New forecast layout! Learn more

10-Day Weather Forecast

Advertisements
Track Severe Weather on mobile